Story, WY (82842)

6:06 AM MST on December 26, 2014 (GMT -0700)
Thorne Rider & Fish Hatchery | Change Station
CLOSE
Current Station
Personal Weather Station
Location: Story, WY
Elevation: 5373 ft
Nearby Weather Stations

Elev 5373 ft 44.57 °N, 106.92 °W | Updated 9 minutes ago

Overcast
Overcast
9.5 °F
Feels Like 10 °F
N
0.0
Wind Variable Wind from North
Gusts 0.0 mph

Today
High -- | Low -- °F
--% Chance of Precip.
Yesterday
High -- | Low -- °F
Precip. -- in
7:43 AM 4:33 PM
Waxing Crescent, 25% visible
Pressure 30.18 in
Visibility 10.0 miles
Clouds Overcast 1800 ft
Windchill 10 °F
Dew Point 7 °F
Humidity 88%
Rainfall 0.00 in
Snow Depth Not available.
UV 0.0 out of 12
Pollen .10 out of 12
Air Quality Not available.
Flu Activity Not available.
METAR KSHR 261253Z AUTO 22003KT 10SM OVC018 M07/M10 A3002 RMK AO2 SLP219 T10721100

More Conditions Fewer Conditions

Pressure 30.18 in
Visibility 10.0 miles
Clouds Overcast 1800 ft
Windchill 10 °F
Dew Point 7 °F
Humidity 88%
Rainfall 0.00 in
Snow Depth Not available.
UV 0.0 out of 12
Pollen .10 out of 12
Air Quality Not available.
Flu Activity Not available.
METAR KSHR 261253Z AUTO 22003KT 10SM OVC018 M07/M10 A3002 RMK AO2 SLP219 T10721100

More Conditions Fewer Conditions

10-Day Weather Forecast

Almanac

Astronomy

Dec. 26, 2014 Rise Set
Actual Time
Civil Twilight
Nautical Twilight
Astronomical Twilight
Moon
Length of Visible Light
Length of Day
Tomorrow will be .
, % of the Moon is Illuminated

Today's Extremes

State Highs State Lows

Community

WunderPhotos

Upload Photos

1,780,589 photos uploaded!

WunderBlogs® & News

Nearby

Air Quality

  Air Quality AQ Index Pollutant
Not available.

Snow Depth

Station Depth Elevation

Earthquake Activity

City Distance Mag. Time & Date
Minimum magnitude displayed is 2.5.

Coastal Water Temperatures

Place Temperature

Nearby Weather Stations